^^
Saratoga-Weather Station Historical Data
Daily Summary for February 27, 2020 Units:  Metric    English   Both
Daily Weekly Monthly Yearly Custom
  High: Low: Average:
Temperature: 32.7 °C 13.1 °C 22.9 °C
Dew Point: 14.9 °C 10.4 °C 13.1 °C
Humidity: 92% 29% 59%
Wind Speed: 16.3km/h 0km/h 2.5km/h
Wind Gust: 25.7km/h - -
Wind- - SW
Pressure: 1016.3 hPa 1007.5 hPa -
Precipitation: 0.0 mm    
Historical Graphs
 
 
Tabular Data for February 27, 2020
Time Temperature Dew Point Pressure Wind Wind Speed Wind Gust Humidity Rainfall Rate (Hourly) solar
00:03 16.4 °C 12 °C 1015.9 hPa Calm     75% 0.0 mm 0 W/m2
00:08 16.4 °C 12.2 °C 1015.9 hPa Calm     76% 0.0 mm 0 W/m2
00:13 16.3 °C 12.3 °C 1015.9 hPa Calm     77% 0.0 mm 0 W/m2
00:18 16.2 °C 12.2 °C 1015.9 hPa Calm     77% 0.0 mm 0 W/m2
00:23 16.2 °C 12.4 °C 1015.9 hPa Calm     78% 0.0 mm 0 W/m2
00:28 16.2 °C 12.4 °C 1015.6 hPa Calm     78% 0.0 mm 0 W/m2
00:33 16.1 °C 12.3 °C 1015.9 hPa Calm     78% 0.0 mm 0 W/m2
00:38 16 °C 12.4 °C 1015.9 hPa Calm     79% 0.0 mm 0 W/m2
00:43 15.9 °C 12.3 °C 1015.9 hPa Calm     79% 0.0 mm 0 W/m2
00:48 15.9 °C 12.3 °C 1015.9 hPa Calm     79% 0.0 mm 0 W/m2
00:53 15.9 °C 12.5 °C 1015.9 hPa Calm     80% 0.0 mm 0 W/m2
00:58 15.9 °C 12.5 °C 1015.9 hPa Calm     80% 0.0 mm 0 W/m2
01:03 15.9 °C 12.5 °C 1015.9 hPa Calm   1.6 km/h 80% 0.0 mm 0 W/m2
01:08 15.9 °C 12.5 °C 1015.9 hPa Calm     80% 0.0 mm 0 W/m2
01:13 15.9 °C 12.5 °C 1015.9 hPa Calm   1.6 km/h 80% 0.0 mm 0 W/m2
01:18 15.9 °C 12.6 °C 1015.9 hPa Calm     81% 0.0 mm 0 W/m2
01:23 15.8 °C 12.4 °C 1015.6 hPa Calm     80% 0.0 mm 0 W/m2
01:28 15.7 °C 12.3 °C 1015.9 hPa Calm     80% 0.0 mm 0 W/m2
01:33 15.7 °C 12.3 °C 1015.9 hPa Calm     80% 0.0 mm 0 W/m2
01:38 15.6 °C 12.4 °C 1016.3 hPa Calm     81% 0.0 mm 0 W/m2
01:43 15.6 °C 12.4 °C 1015.9 hPa Calm     81% 0.0 mm 0 W/m2
01:48 15.5 °C 12.4 °C 1015.9 hPa Calm     82% 0.0 mm 0 W/m2
01:53 15.4 °C 12.3 °C 1015.9 hPa Calm     82% 0.0 mm 0 W/m2
01:59 15.3 °C 12.2 °C 1015.9 hPa Calm     82% 0.0 mm 0 W/m2
02:04 15.3 °C 12.4 °C 1015.6 hPa Calm     83% 0.0 mm 0 W/m2
02:09 15.2 °C 12.3 °C 1015.9 hPa Calm   1.6 km/h 83% 0.0 mm 0 W/m2
02:14 15.1 °C 12.2 °C 1015.9 hPa Calm     83% 0.0 mm 0 W/m2
02:19 14.9 °C 12.2 °C 1015.9 hPa Calm   1.6 km/h 84% 0.0 mm 0 W/m2
02:24 14.8 °C 12.1 °C 1015.9 hPa Calm     84% 0.0 mm 0 W/m2
02:29 14.8 °C 12.1 °C 1015.6 hPa Calm     84% 0.0 mm 0 W/m2
02:34 14.7 °C 12.2 °C 1015.6 hPa Calm     85% 0.0 mm 0 W/m2
02:39 14.7 °C 12.2 °C 1015.6 hPa Calm     85% 0.0 mm 0 W/m2
02:44 14.7 °C 12.2 °C 1015.6 hPa Calm   1.6 km/h 85% 0.0 mm 0 W/m2
02:49 14.8 °C 12.3 °C 1015.6 hPa Calm     85% 0.0 mm 0 W/m2
02:54 14.8 °C 12.3 °C 1015.6 hPa Calm     85% 0.0 mm 0 W/m2
02:59 14.8 °C 12.3 °C 1015.6 hPa Calm     85% 0.0 mm 0 W/m2
03:04 14.8 °C 12.3 °C 1015.6 hPa Calm     85% 0.0 mm 0 W/m2
03:09 14.8 °C 12.3 °C 1015.6 hPa Calm   1.6 km/h 85% 0.0 mm 0 W/m2
03:20 14.7 °C 12.2 °C 1015.6 hPa Calm   1.6 km/h 85% 0.0 mm 0 W/m2
03:25 14.7 °C 12.2 °C 1015.6 hPa Calm   1.6 km/h 85% 0.0 mm 0 W/m2
03:30 14.7 °C 12.2 °C 1015.6 hPa Calm     85% 0.0 mm 0 W/m2
03:35 14.6 °C 12.3 °C 1015.6 hPa Calm   1.6 km/h 86% 0.0 mm 0 W/m2
03:40 14.6 °C 12.3 °C 1015.6 hPa Calm     86% 0.0 mm 0 W/m2
03:45 14.6 °C 12.3 °C 1015.6 hPa Calm     86% 0.0 mm 0 W/m2
03:50 14.4 °C 12.1 °C 1015.6 hPa Calm     86% 0.0 mm 0 W/m2
03:55 14.4 °C 12.1 °C 1015.6 hPa Calm     86% 0.0 mm 0 W/m2
04:00 14.3 °C 12 °C 1015.6 hPa Calm     86% 0.0 mm 0 W/m2
04:05 14.3 °C 12.2 °C 1015.9 hPa Calm     87% 0.0 mm 0 W/m2
04:10 14.3 °C 12.2 °C 1015.9 hPa Calm     87% 0.0 mm 0 W/m2
04:15 14.3 °C 12.2 °C 1015.6 hPa Calm     87% 0.0 mm 0 W/m2
04:20 14.2 °C 12.1 °C 1015.6 hPa Calm     87% 0.0 mm 0 W/m2
04:25 14.2 °C 12.1 °C 1015.6 hPa Calm     87% 0.0 mm 0 W/m2
04:30 14.1 °C 12 °C 1015.6 hPa Calm     87% 0.0 mm 0 W/m2
04:35 14 °C 12 °C 1015.6 hPa Calm     88% 0.0 mm 0 W/m2
04:40 13.9 °C 11.9 °C 1015.6 hPa Calm     88% 0.0 mm 0 W/m2
04:45 13.8 °C 11.8 °C 1015.6 hPa Calm     88% 0.0 mm 0 W/m2
04:50 13.7 °C 11.7 °C 1015.6 hPa Calm     88% 0.0 mm 0 W/m2
04:55 13.7 °C 11.7 °C 1015.6 hPa Calm     88% 0.0 mm 0 W/m2
05:00 13.7 °C 11.9 °C 1015.2 hPa Calm     89% 0.0 mm 0 W/m2
05:05 13.7 °C 11.9 °C 1015.6 hPa Calm     89% 0.0 mm 0 W/m2
05:10 13.7 °C 11.9 °C 1015.6 hPa Calm     89% 0.0 mm 0 W/m2
05:15 13.7 °C 11.9 °C 1015.6 hPa Calm     89% 0.0 mm 0 W/m2
05:20 13.6 °C 11.8 °C 1015.6 hPa Calm     89% 0.0 mm 0 W/m2
05:25 13.6 °C 11.8 °C 1015.6 hPa Calm     89% 0.0 mm 0 W/m2
05:30 13.6 °C 11.8 °C 1015.6 hPa Calm     89% 0.0 mm 0 W/m2
05:35 13.6 °C 11.8 °C 1015.2 hPa Calm     89% 0.0 mm 0 W/m2
05:40 13.5 °C 11.9 °C 1015.2 hPa Calm     90% 0.0 mm 0 W/m2
05:45 13.6 °C 12 °C 1015.2 hPa Calm     90% 0.0 mm 0 W/m2
05:50 13.5 °C 11.9 °C 1015.2 hPa Calm     90% 0.0 mm 0 W/m2
05:55 13.4 °C 11.8 °C 1015.2 hPa Calm     90% 0.0 mm 0 W/m2
06:00 13.4 °C 11.8 °C 1015.2 hPa Calm     90% 0.0 mm 0 W/m2
06:05 13.4 °C 11.8 °C 1015.2 hPa Calm     90% 0.0 mm 0 W/m2
06:11 13.3 °C 11.9 °C 1015.2 hPa Calm     91% 0.0 mm 0 W/m2
06:16 13.3 °C 11.9 °C 1015.2 hPa Calm     91% 0.0 mm 5 W/m2
06:21 13.3 °C 11.9 °C 1015.2 hPa Calm     91% 0.0 mm 5 W/m2
06:26 13.2 °C 11.8 °C 1015.2 hPa Calm     91% 0.0 mm 7 W/m2
06:31 13.2 °C 11.8 °C 1015.2 hPa Calm     91% 0.0 mm 11 W/m2
06:36 13.1 °C 11.7 °C 1015.2 hPa Calm     91% 0.0 mm 14 W/m2
06:41 13.1 °C 11.8 °C 1015.2 hPa Calm     92% 0.0 mm 18 W/m2
06:46 13.1 °C 11.8 °C 1015.2 hPa Calm     92% 0.0 mm 19 W/m2
06:51 13.1 °C 11.8 °C 1015.2 hPa Calm     92% 0.0 mm 25 W/m2
06:56 13.2 °C 11.9 °C 1015.2 hPa Calm     92% 0.0 mm 28 W/m2
07:01 13.3 °C 12 °C 1015.2 hPa Calm     92% 0.0 mm 33 W/m2
07:06 13.4 °C 12.1 °C 1015.2 hPa Calm     92% 0.0 mm 32 W/m2
07:11 13.6 °C 12.3 °C 1015.2 hPa Calm     92% 0.0 mm 30 W/m2
07:16 13.7 °C 12.3 °C 1015.2 hPa Calm     91% 0.0 mm 40 W/m2
07:21 13.9 °C 12.5 °C 1014.9 hPa West 1.4 km/h 1.6 km/h 91% 0.0 mm 58 W/m2
07:26 14.2 °C 12.6 °C 1015.2 hPa Calm     90% 0.0 mm 84 W/m2
07:32 14.4 °C 12.8 °C 1015.2 hPa Calm   1.6 km/h 90% 0.0 mm 93 W/m2
07:37 14.7 °C 12.9 °C 1015.2 hPa Calm   1.6 km/h 89% 0.0 mm 62 W/m2
07:42 14.8 °C 12.7 °C 1015.2 hPa Calm     87% 0.0 mm 39 W/m2
07:47 15 °C 12.9 °C 1015.2 hPa Calm   1.6 km/h 87% 0.0 mm 37 W/m2
07:52 15.1 °C 12.8 °C 1014.9 hPa Calm     86% 0.0 mm 67 W/m2
07:57 15.2 °C 12.9 °C 1014.9 hPa NW 1.4 km/h 1.6 km/h 86% 0.0 mm 128 W/m2
08:02 15.3 °C 12.8 °C 1014.9 hPa Calm     85% 0.0 mm 308 W/m2
08:07 15.6 °C 12.9 °C 1014.9 hPa Calm   3.2 km/h 84% 0.0 mm 334 W/m2
08:12 16 °C 13.1 °C 1014.9 hPa Calm   1.6 km/h 83% 0.0 mm 234 W/m2
08:17 16.3 °C 13.2 °C 1014.9 hPa Calm   1.6 km/h 82% 0.0 mm 213 W/m2
08:22 16.6 °C 13.3 °C 1014.9 hPa ESE 1.4 km/h 1.6 km/h 81% 0.0 mm 113 W/m2
08:27 16.7 °C 13.2 °C 1014.9 hPa Calm     80% 0.0 mm 123 W/m2
08:32 16.9 °C 13.2 °C 1014.9 hPa Calm   1.6 km/h 79% 0.0 mm 128 W/m2
08:37 17.1 °C 13.4 °C 1014.9 hPa ESE 3.2 km/h 3.2 km/h 79% 0.0 mm 100 W/m2
08:42 17.3 °C 13.4 °C 1014.9 hPa ENE 3.2 km/h 3.2 km/h 78% 0.0 mm 128 W/m2
08:47 17.8 °C 13.5 °C 1014.9 hPa Calm   3.2 km/h 76% 0.0 mm 141 W/m2
08:52 18.1 °C 13.6 °C 1014.9 hPa ENE 1.4 km/h 4.8 km/h 75% 0.0 mm 125 W/m2
08:57 18.4 °C 13.9 °C 1014.6 hPa ESE 1.4 km/h 3.2 km/h 75% 0.0 mm 149 W/m2
09:02 18.8 °C 13.9 °C 1014.6 hPa NNW 3.2 km/h 3.2 km/h 73% 0.0 mm 141 W/m2
09:07 18.8 °C 13.9 °C 1014.6 hPa East 1.4 km/h 3.2 km/h 73% 0.0 mm 188 W/m2
09:12 19.1 °C 14.1 °C 1014.6 hPa Calm   1.6 km/h 73% 0.0 mm 274 W/m2
09:17 19.3 °C 14.1 °C 1014.9 hPa Calm   3.2 km/h 72% 0.0 mm 257 W/m2
09:22 19.3 °C 14.1 °C 1014.9 hPa Calm   3.2 km/h 72% 0.0 mm 232 W/m2
09:27 19.4 °C 14 °C 1014.9 hPa NNW 3.2 km/h 3.2 km/h 71% 0.0 mm 206 W/m2
09:32 19.4 °C 14 °C 1014.9 hPa East 3.2 km/h 6.4 km/h 71% 0.0 mm 279 W/m2
09:37 19.7 °C 14.3 °C 1014.6 hPa NNE 4.7 km/h 4.8 km/h 71% 0.0 mm 309 W/m2
09:43 19.8 °C 14.4 °C 1014.9 hPa Calm   3.2 km/h 71% 0.0 mm 306 W/m2
09:48 20.1 °C 14.2 °C 1014.9 hPa NE 6.4 km/h 6.4 km/h 69% 0.0 mm 232 W/m2
09:53 20.2 °C 14.1 °C 1014.9 hPa Calm   1.6 km/h 68% 0.0 mm 236 W/m2
09:58 20.3 °C 14.4 °C 1014.6 hPa Calm   6.4 km/h 69% 0.0 mm 195 W/m2
10:03 20.6 °C 14.5 °C 1014.6 hPa ENE 4.7 km/h 11.3 km/h 68% 0.0 mm 190 W/m2
10:08 20.9 °C 14.3 °C 1014.6 hPa East 3.2 km/h 3.2 km/h 66% 0.0 mm 213 W/m2
10:13 21.3 °C 14.5 °C 1014.6 hPa West 11.3 km/h 11.3 km/h 65% 0.0 mm 559 W/m2
10:18 21.8 °C 14.2 °C 1014.6 hPa East 1.4 km/h 6.4 km/h 62% 0.0 mm 582 W/m2
10:23 22.1 °C 14.5 °C 1014.2 hPa NE 3.2 km/h 6.4 km/h 62% 0.0 mm 608 W/m2
10:28 22.3 °C 14.7 °C 1014.6 hPa ENE 1.4 km/h 4.8 km/h 62% 0.0 mm 475 W/m2
10:33 22.5 °C 14.1 °C 1014.2 hPa NNE 1.4 km/h 8 km/h 59% 0.0 mm 610 W/m2
10:38 22.7 °C 14 °C 1014.2 hPa ESE 3.2 km/h 6.4 km/h 58% 0.0 mm 617 W/m2
10:43 23.1 °C 14.1 °C 1014.2 hPa Calm   6.4 km/h 57% 0.0 mm 631 W/m2
10:48 23.3 °C 14.3 °C 1013.9 hPa ENE 6.4 km/h 8 km/h 57% 0.0 mm 642 W/m2
10:53 23.5 °C 14.2 °C 1013.9 hPa NE 6.4 km/h 9.7 km/h 56% 0.0 mm 661 W/m2
10:58 23.6 °C 14.6 °C 1013.9 hPa East 4.7 km/h 11.3 km/h 57% 0.0 mm 668 W/m2
11:03 23.7 °C 14.7 °C 1013.9 hPa SSE 1.4 km/h 8 km/h 57% 0.0 mm 673 W/m2
11:08 23.9 °C 14.9 °C 1013.9 hPa East 4.7 km/h 9.7 km/h 57% 0.0 mm 682 W/m2
11:18 24.7 °C 14.8 °C 1013.5 hPa NE 6.4 km/h 12.9 km/h 54% 0.0 mm 700 W/m2
11:23 25 °C 14.8 °C 1013.5 hPa East 1.4 km/h 8 km/h 53% 0.0 mm 715 W/m2
11:28 25.2 °C 14.6 °C 1013.5 hPa East 4.7 km/h 12.9 km/h 52% 0.0 mm 722 W/m2
11:33 25.4 °C 14.2 °C 1013.5 hPa East 3.2 km/h 8 km/h 50% 0.0 mm 731 W/m2
11:38 25.7 °C 13.9 °C 1013.5 hPa ESE 6.4 km/h 6.4 km/h 48% 0.0 mm 738 W/m2
11:43 25.7 °C 14.2 °C 1013.5 hPa ENE 1.4 km/h 9.7 km/h 49% 0.0 mm 745 W/m2
11:48 25.8 °C 14 °C 1013.2 hPa East 1.4 km/h 6.4 km/h 48% 0.0 mm 752 W/m2
11:53 25.9 °C 13.7 °C 1013.2 hPa WNW 1.4 km/h 6.4 km/h 47% 0.0 mm 752 W/m2
11:58 25.9 °C 13.7 °C 1013.2 hPa West 3.2 km/h 4.8 km/h 47% 0.0 mm 770 W/m2
12:03 26.1 °C 14.2 °C 1012.9 hPa WNW 1.4 km/h 3.2 km/h 48% 0.0 mm 768 W/m2
12:08 26.3 °C 14.4 °C 1012.9 hPa East 1.4 km/h 14.5 km/h 48% 0.0 mm 788 W/m2
12:13 26.4 °C 14.2 °C 1012.9 hPa NE 1.4 km/h 4.8 km/h 47% 0.0 mm 788 W/m2
12:18 26.6 °C 12.6 °C 1012.9 hPa ENE 6.4 km/h 8 km/h 42% 0.0 mm 796 W/m2
12:23 26.8 °C 13.5 °C 1012.9 hPa NNW 4.7 km/h 6.4 km/h 44% 0.0 mm 814 W/m2
12:28 27.2 °C 10.4 °C 1012.5 hPa East 3.2 km/h 14.5 km/h 35% 0.0 mm 821 W/m2
12:33 27.3 °C 10.5 °C 1012.9 hPa NW 6.4 km/h 16.1 km/h 35% 0.0 mm 826 W/m2
12:38 27.4 °C 11 °C 1012.5 hPa NW 16.3 km/h 20.9 km/h 36% 0.0 mm 828 W/m2
12:43 27.3 °C 11.3 °C 1012.9 hPa WSW 3.2 km/h 6.4 km/h 37% 0.0 mm 831 W/m2
12:48 27.2 °C 11.6 °C 1012.5 hPa SW 3.2 km/h 20.9 km/h 38% 0.0 mm 831 W/m2
12:53 27.5 °C 12.7 °C 1012.5 hPa WSW 13 km/h 17.7 km/h 40% 0.0 mm 838 W/m2
12:58 27.6 °C 13.2 °C 1012.5 hPa WNW 6.4 km/h 20.9 km/h 41% 0.0 mm 849 W/m2
13:03 27.6 °C 12.8 °C 1012.2 hPa NW 6.4 km/h 12.9 km/h 40% 0.0 mm 853 W/m2
13:08 27.4 °C 13 °C 1012.5 hPa WNW 4.7 km/h 9.7 km/h 41% 0.0 mm 860 W/m2
13:13 27.8 °C 13.3 °C 1012.2 hPa West 6.4 km/h 11.3 km/h 41% 0.0 mm 858 W/m2
13:18 27.8 °C 13.3 °C 1012.2 hPa WNW 7.9 km/h 16.1 km/h 41% 0.0 mm 860 W/m2
13:23 27.7 °C 13.6 °C 1012.2 hPa WNW 3.2 km/h 9.7 km/h 42% 0.0 mm 872 W/m2
13:28 27.8 °C 13.3 °C 1012.2 hPa WNW 7.9 km/h 11.3 km/h 41% 0.0 mm 882 W/m2
13:33 27.9 °C 13.4 °C 1011.9 hPa WNW 4.7 km/h 6.4 km/h 41% 0.0 mm 752 W/m2
13:38 28.2 °C 14.1 °C 1011.9 hPa NNW 3.2 km/h 3.2 km/h 42% 0.0 mm 854 W/m2
13:43 28.2 °C 13.3 °C 1011.9 hPa West 1.4 km/h 11.3 km/h 40% 0.0 mm 847 W/m2
13:48 28.3 °C 13.4 °C 1011.9 hPa NW 3.2 km/h 14.5 km/h 40% 0.0 mm 872 W/m2
13:53 28.4 °C 13.5 °C 1011.5 hPa West 11.1 km/h 11.3 km/h 40% 0.0 mm 840 W/m2
13:58 28.5 °C 13.2 °C 1011.5 hPa SW 4.7 km/h 14.5 km/h 39% 0.0 mm 828 W/m2
14:03 28.7 °C 13.4 °C 1011.2 hPa NE 1.4 km/h 6.4 km/h 39% 0.0 mm 831 W/m2
14:08 29.1 °C 13.7 °C 1011.2 hPa South 1.4 km/h 8 km/h 39% 0.0 mm 891 W/m2
14:13 29.6 °C 14.2 °C 1010.8 hPa South 3.2 km/h 11.3 km/h 39% 0.0 mm 902 W/m2
14:18 29.4 °C 13.2 °C 1010.8 hPa Calm   14.5 km/h 37% 0.0 mm 904 W/m2
14:23 29.6 °C 13.4 °C 1010.8 hPa ENE 4.7 km/h 8 km/h 37% 0.0 mm 914 W/m2
14:28 29.5 °C 12.9 °C 1010.8 hPa ESE 3.2 km/h 9.7 km/h 36% 0.0 mm 798 W/m2
14:33 29.4 °C 12.3 °C 1010.8 hPa ENE 6.4 km/h 16.1 km/h 35% 0.0 mm 872 W/m2
14:38 29.5 °C 12.4 °C 1010.8 hPa SW 6.4 km/h 12.9 km/h 35% 0.0 mm 628 W/m2
14:43 29.5 °C 13.3 °C 1010.5 hPa ENE 3.2 km/h 16.1 km/h 37% 0.0 mm 800 W/m2
14:48 29.7 °C 13 °C 1010.5 hPa North 6.4 km/h 6.4 km/h 36% 0.0 mm 882 W/m2
14:53 30 °C 12.9 °C 1010.5 hPa NW 11.1 km/h 19.3 km/h 35% 0.0 mm 802 W/m2
14:58 30.4 °C 13.7 °C 1010.2 hPa NNW 3.2 km/h 4.8 km/h 36% 0.0 mm 860 W/m2
15:03 30.8 °C 12.7 °C 1010.2 hPa West 11.1 km/h 19.3 km/h 33% 0.0 mm 631 W/m2
15:08 30.6 °C 12.9 °C 1010.2 hPa SW 6.4 km/h 6.4 km/h 34% 0.0 mm 726 W/m2
15:13 30.6 °C 12.5 °C 1010.2 hPa North 4.7 km/h 19.3 km/h 33% 0.0 mm 795 W/m2
15:18 30.7 °C 12.6 °C 1010.2 hPa WNW 6.4 km/h 14.5 km/h 33% 0.0 mm 837 W/m2
15:23 30.8 °C 12.7 °C 1009.8 hPa WNW 4.7 km/h 14.5 km/h 33% 0.0 mm 807 W/m2
15:28 31.1 °C 13.4 °C 1009.8 hPa NW 6.4 km/h 8 km/h 34% 0.0 mm 788 W/m2
15:33 31 °C 12.8 °C 1009.8 hPa East 3.2 km/h 16.1 km/h 33% 0.0 mm 807 W/m2
15:38 31.1 °C 12.9 °C 1009.8 hPa West 9.7 km/h 9.7 km/h 33% 0.0 mm 751 W/m2
15:43 31.4 °C 13.2 °C 1009.5 hPa West 3.2 km/h 8 km/h 33% 0.0 mm 802 W/m2
15:48 31.6 °C 12.9 °C 1009.5 hPa WSW 1.4 km/h 14.5 km/h 32% 0.0 mm 793 W/m2
15:53 31.6 °C 13.4 °C 1009.5 hPa WSW 11.1 km/h 11.3 km/h 33% 0.0 mm 788 W/m2
16:03 31.9 °C 13.6 °C 1009.5 hPa SW 1.4 km/h 3.2 km/h 33% 0.0 mm 772 W/m2
16:08 31.9 °C 13.2 °C 1009.1 hPa West 4.7 km/h 14.5 km/h 32% 0.0 mm 766 W/m2
16:14 31.9 °C 12.7 °C 1009.1 hPa ESE 3.2 km/h 11.3 km/h 31% 0.0 mm 735 W/m2
16:19 32.1 °C 12.3 °C 1009.1 hPa NW 7.9 km/h 14.5 km/h 30% 0.0 mm 742 W/m2
16:24 32.2 °C 12.4 °C 1009.1 hPa WSW 3.2 km/h 14.5 km/h 30% 0.0 mm 729 W/m2
16:29 32.3 °C 12 °C 1009.1 hPa West 14.3 km/h 16.1 km/h 29% 0.0 mm 719 W/m2
16:34 32.2 °C 11.9 °C 1009.1 hPa NW 7.9 km/h 17.7 km/h 29% 0.0 mm 705 W/m2
16:39 31.9 °C 11.7 °C 1009.1 hPa NNW 14.3 km/h 14.5 km/h 29% 0.0 mm 687 W/m2
16:44 31.7 °C 12 °C 1008.8 hPa NNW 4.7 km/h 17.7 km/h 30% 0.0 mm 675 W/m2
16:49 31.9 °C 12.7 °C 1008.8 hPa SW 6.4 km/h 6.4 km/h 31% 0.0 mm 666 W/m2
16:54 32.1 °C 12.3 °C 1008.8 hPa NW 9.7 km/h 14.5 km/h 30% 0.0 mm 661 W/m2
16:59 32.2 °C 12.4 °C 1008.5 hPa NW 7.9 km/h 12.9 km/h 30% 0.0 mm 652 W/m2
17:04 32.3 °C 12.5 °C 1008.5 hPa NW 3.2 km/h 8 km/h 30% 0.0 mm 638 W/m2
17:09 32.6 °C 12.8 °C 1008.5 hPa NW 3.2 km/h 6.4 km/h 30% 0.0 mm 633 W/m2
17:14 32.7 °C 12.9 °C 1008.5 hPa SW 6.4 km/h 16.1 km/h 30% 0.0 mm 626 W/m2
17:19 32.6 °C 12.3 °C 1008.8 hPa NW 6.4 km/h 9.7 km/h 29% 0.0 mm 608 W/m2
17:24 32.6 °C 12.3 °C 1008.5 hPa ESE 11.1 km/h 11.3 km/h 29% 0.0 mm 585 W/m2
17:29 32.4 °C 12.6 °C 1008.5 hPa NE 1.4 km/h 16.1 km/h 30% 0.0 mm 573 W/m2
17:34 32.3 °C 12.5 °C 1008.5 hPa NNW 6.4 km/h 25.7 km/h 30% 0.0 mm 561 W/m2
17:39 32.4 °C 12.6 °C 1008.1 hPa West 9.7 km/h 12.9 km/h 30% 0.0 mm 547 W/m2
17:44 32.4 °C 12.6 °C 1008.1 hPa WSW 7.9 km/h 25.7 km/h 30% 0.0 mm 533 W/m2
17:49 32.4 °C 12.6 °C 1008.1 hPa West 9.7 km/h 22.5 km/h 30% 0.0 mm 520 W/m2
17:54 32.3 °C 12.5 °C 1008.1 hPa West 11.1 km/h 16.1 km/h 30% 0.0 mm 508 W/m2
17:59 32.3 °C 13 °C 1008.1 hPa West 4.7 km/h 8 km/h 31% 0.0 mm 497 W/m2
18:04 32.4 °C 12.6 °C 1008.1 hPa WNW 9.7 km/h 16.1 km/h 30% 0.0 mm 480 W/m2
18:09 32.4 °C 12.6 °C 1008.1 hPa WSW 6.4 km/h 16.1 km/h 30% 0.0 mm 468 W/m2
18:14 32.4 °C 12.6 °C 1008.1 hPa NW 6.4 km/h 17.7 km/h 30% 0.0 mm 455 W/m2
18:19 32.2 °C 12.4 °C 1008.1 hPa WSW 4.7 km/h 12.9 km/h 30% 0.0 mm 443 W/m2
18:24 32.3 °C 13 °C 1007.8 hPa NNW 7.9 km/h 11.3 km/h 31% 0.0 mm 424 W/m2
18:29 32.3 °C 13 °C 1007.8 hPa SSW 6.4 km/h 8 km/h 31% 0.0 mm 411 W/m2
18:34 32.3 °C 13 °C 1007.8 hPa NW 6.4 km/h 16.1 km/h 31% 0.0 mm 399 W/m2
18:39 32.1 °C 13.3 °C 1007.8 hPa WNW 4.7 km/h 14.5 km/h 32% 0.0 mm 381 W/m2
18:44 32.1 °C 12.8 °C 1007.8 hPa NW 4.7 km/h 12.9 km/h 31% 0.0 mm 352 W/m2
18:49 32.2 °C 12.9 °C 1007.8 hPa WSW 3.2 km/h 6.4 km/h 31% 0.0 mm 327 W/m2
18:54 32.2 °C 12.9 °C 1007.8 hPa NW 9.7 km/h 12.9 km/h 31% 0.0 mm 297 W/m2
19:04 32.1 °C 12.8 °C 1007.8 hPa West 6.4 km/h 16.1 km/h 31% 0.0 mm 257 W/m2
19:09 31.9 °C 12.2 °C 1007.8 hPa WSW 6.4 km/h 17.7 km/h 30% 0.0 mm 234 W/m2
19:14 31.9 °C 12.2 °C 1007.8 hPa West 9.7 km/h 16.1 km/h 30% 0.0 mm 211 W/m2
19:19 31.9 °C 12.7 °C 1007.8 hPa WNW 6.4 km/h 17.7 km/h 31% 0.0 mm 199 W/m2
19:24 32 °C 12.3 °C 1007.8 hPa WNW 4.7 km/h 11.3 km/h 30% 0.0 mm 204 W/m2
19:30 31.8 °C 12.6 °C 1007.8 hPa NNW 7.9 km/h 12.9 km/h 31% 0.0 mm 211 W/m2
19:35 31.8 °C 12.6 °C 1007.8 hPa WNW 3.2 km/h 19.3 km/h 31% 0.0 mm 218 W/m2
19:40 31.7 °C 12.5 °C 1007.5 hPa West 3.2 km/h 11.3 km/h 31% 0.0 mm 213 W/m2
19:45 31.7 °C 13 °C 1007.5 hPa WNW 4.7 km/h 19.3 km/h 32% 0.0 mm 202 W/m2
19:50 31.7 °C 13 °C 1007.5 hPa WNW 3.2 km/h 4.8 km/h 32% 0.0 mm 188 W/m2
19:55 31.7 °C 12.5 °C 1007.5 hPa North 4.7 km/h 11.3 km/h 31% 0.0 mm 167 W/m2
20:00 31.5 °C 12.8 °C 1007.5 hPa West 1.4 km/h 6.4 km/h 32% 0.0 mm 139 W/m2
20:05 31.4 °C 13.2 °C 1007.5 hPa SW 3.2 km/h 4.8 km/h 33% 0.0 mm 116 W/m2
20:10 31.4 °C 13.2 °C 1007.5 hPa NNW 1.4 km/h 4.8 km/h 33% 0.0 mm 104 W/m2
20:15 31.4 °C 13.2 °C 1007.5 hPa North 1.4 km/h 3.2 km/h 33% 0.0 mm 97 W/m2
20:20 31.4 °C 13.2 °C 1007.5 hPa NW 3.2 km/h 11.3 km/h 33% 0.0 mm 90 W/m2
20:25 31.1 °C 13.4 °C 1007.5 hPa NW 7.9 km/h 8 km/h 34% 0.0 mm 77 W/m2
20:30 30.9 °C 13.2 °C 1007.5 hPa West 3.2 km/h 9.7 km/h 34% 0.0 mm 65 W/m2
20:35 30.7 °C 13.5 °C 1007.5 hPa NW 7.9 km/h 9.7 km/h 35% 0.0 mm 54 W/m2
20:40 30.4 °C 13.7 °C 1007.5 hPa NNW 1.4 km/h 4.8 km/h 36% 0.0 mm 39 W/m2
20:46 30.1 °C 13.8 °C 1007.5 hPa Calm   8 km/h 37% 0.0 mm 23 W/m2
20:51 29.8 °C 14.4 °C 1007.5 hPa Calm   1.6 km/h 39% 0.0 mm 18 W/m2
20:56 29.4 °C 14.4 °C 1007.5 hPa Calm   1.6 km/h 40% 0.0 mm 18 W/m2
21:01 29.1 °C 14.9 °C 1007.5 hPa Calm   1.6 km/h 42% 0.0 mm 12 W/m2
21:06 28.7 °C 14.1 °C 1007.5 hPa Calm     41% 0.0 mm 9 W/m2
21:11 28.2 °C 14.8 °C 1007.5 hPa Calm     44% 0.0 mm 7 W/m2
21:16 27.8 °C 14.8 °C 1007.5 hPa Calm   1.6 km/h 45% 0.0 mm 5 W/m2
21:21 27.4 °C 14.8 °C 1007.8 hPa Calm     46% 0.0 mm 5 W/m2
21:26 27 °C 14.7 °C 1007.8 hPa Calm   1.6 km/h 47% 0.0 mm 0 W/m2
21:31 26.6 °C 14.4 °C 1007.5 hPa Calm   1.6 km/h 47% 0.0 mm 0 W/m2
21:36 26.3 °C 14.4 °C 1007.8 hPa Calm   1.6 km/h 48% 0.0 mm 0 W/m2
21:41 26 °C 14.8 °C 1007.8 hPa Calm   1.6 km/h 50% 0.0 mm 0 W/m2
21:46 25.7 °C 14.5 °C 1007.8 hPa Calm   1.6 km/h 50% 0.0 mm 0 W/m2
21:51 25.4 °C 14.5 °C 1007.8 hPa Calm     51% 0.0 mm 0 W/m2
21:56 25.2 °C 14.6 °C 1007.8 hPa SSW 1.6 km/h 1.6 km/h 52% 0.0 mm 0 W/m2
22:01 25 °C 14.8 °C 1007.8 hPa Calm     53% 0.0 mm 0 W/m2
22:06 24.8 °C 14.6 °C 1007.8 hPa Calm     53% 0.0 mm 0 W/m2
22:11 24.6 °C 14.7 °C 1007.8 hPa Calm     54% 0.0 mm 0 W/m2
22:16 24.4 °C 14.8 °C 1007.8 hPa Calm   1.6 km/h 55% 0.0 mm 0 W/m2
22:21 24.2 °C 14.6 °C 1007.8 hPa Calm   1.6 km/h 55% 0.0 mm 0 W/m2
22:26 24.1 °C 14.8 °C 1007.8 hPa Calm     56% 0.0 mm 0 W/m2
22:31 23.9 °C 14.6 °C 1007.8 hPa Calm   1.6 km/h 56% 0.0 mm 0 W/m2
22:36 23.7 °C 14.7 °C 1007.8 hPa Calm     57% 0.0 mm 0 W/m2
22:41 23.6 °C 14.6 °C 1007.8 hPa Calm     57% 0.0 mm 0 W/m2
22:46 23.4 °C 14.4 °C 1007.8 hPa Calm     57% 0.0 mm 0 W/m2
22:51 23.4 °C 14.7 °C 1007.8 hPa Calm     58% 0.0 mm 0 W/m2
22:56 23.4 °C 14.7 °C 1007.8 hPa Calm   3.2 km/h 58% 0.0 mm 0 W/m2
23:01 23.4 °C 14.9 °C 1007.8 hPa SE 3.2 km/h 3.2 km/h 59% 0.0 mm 0 W/m2
23:06 23.4 °C 14.7 °C 1007.8 hPa Calm   1.6 km/h 58% 0.0 mm 0 W/m2
23:11 23.4 °C 14.7 °C 1007.8 hPa Calm   3.2 km/h 58% 0.0 mm 0 W/m2
23:16 23.4 °C 14.7 °C 1007.8 hPa SW 1.4 km/h 3.2 km/h 58% 0.0 mm 0 W/m2
23:21 23.6 °C 14 °C 1007.8 hPa Calm   3.2 km/h 55% 0.0 mm 0 W/m2
23:26 23.7 °C 14.7 °C 1007.8 hPa Calm   1.6 km/h 57% 0.0 mm 0 W/m2
23:32 23.8 °C 14.5 °C 1007.8 hPa Calm   1.6 km/h 56% 0.0 mm 0 W/m2
23:37 23.8 °C 14.5 °C 1007.8 hPa Calm   1.6 km/h 56% 0.0 mm 0 W/m2
23:42 23.7 °C 14.7 °C 1007.8 hPa SSW 1.4 km/h 1.6 km/h 57% 0.0 mm 0 W/m2
23:47 23.6 °C 14.3 °C 1008.1 hPa SSW 1.4 km/h 1.6 km/h 56% 0.0 mm 0 W/m2
23:52 23.5 °C 14.5 °C 1008.1 hPa WSW 1.4 km/h 1.6 km/h 57% 0.0 mm 0 W/m2
23:57 23.4 °C 14.1 °C 1008.1 hPa Calm   3.2 km/h 56% 0.0 mm 0 W/m2
Juneau County Weather
Compliments of Weather Underground - 4 mb